createdAt,value
2018-05-14T00:01:00.923Z,6.03
2018-05-14T00:03:31.590Z,6.00
2018-05-14T00:06:00.568Z,5.20
2018-05-14T00:08:29.198Z,6.17
2018-05-14T00:10:57.706Z,5.33
2018-05-14T00:13:26.140Z,5.80
2018-05-14T00:15:54.694Z,5.20
2018-05-14T00:18:23.470Z,5.77
2018-05-14T00:20:52.247Z,6.67
2018-05-14T00:23:20.970Z,6.07
2018-05-14T00:25:49.626Z,5.67
2018-05-14T00:28:18.234Z,5.60
2018-05-14T00:30:46.678Z,4.80
2018-05-14T00:33:15.630Z,5.23
2018-05-14T00:35:44.136Z,5.63
2018-05-14T00:38:12.614Z,5.57
2018-05-14T00:40:41.201Z,5.60
2018-05-14T00:43:09.776Z,5.90
2018-05-14T00:45:38.410Z,4.87
2018-05-14T00:48:06.911Z,5.70
2018-05-14T00:50:35.702Z,5.93
2018-05-14T00:53:04.503Z,5.73
2018-05-14T00:55:33.067Z,6.13
2018-05-14T00:58:01.556Z,5.70
2018-05-14T01:00:30.515Z,6.10
2018-05-14T01:02:59.042Z,5.53
2018-05-14T01:05:27.850Z,5.60
2018-05-14T01:07:56.464Z,5.60
2018-05-14T01:10:25.019Z,5.60
2018-05-14T01:12:53.640Z,5.30
2018-05-14T01:15:22.161Z,5.70
2018-05-14T01:17:51.030Z,5.90
2018-05-14T01:20:19.528Z,6.07
2018-05-14T01:22:48.135Z,6.10
2018-05-14T01:25:16.651Z,6.63
2018-05-14T01:27:45.358Z,5.63
2018-05-14T01:30:14.054Z,5.97
2018-05-14T01:32:42.563Z,6.17
2018-05-14T01:35:11.102Z,6.10
2018-05-14T01:37:39.632Z,6.00
2018-05-14T01:40:08.596Z,5.97
2018-05-14T01:42:37.346Z,6.23
2018-05-14T01:45:05.941Z,6.67
2018-05-14T01:47:34.534Z,6.93
2018-05-14T01:50:02.969Z,6.13
2018-05-14T01:52:31.652Z,5.87
2018-05-14T01:55:00.237Z,6.17
2018-05-14T01:57:28.696Z,5.63
2018-05-14T01:59:57.147Z,6.50
2018-05-14T02:02:25.678Z,5.33
2018-05-14T02:04:54.566Z,5.90
2018-05-14T02:07:23.049Z,6.63
2018-05-14T02:09:51.699Z,6.50
2018-05-14T02:12:20.220Z,6.33
2018-05-14T02:14:48.663Z,6.40
2018-05-14T02:17:17.454Z,6.50
2018-05-14T02:19:45.860Z,6.13
2018-05-14T02:22:14.560Z,5.80
2018-05-14T02:24:42.982Z,6.73
2018-05-14T02:27:11.554Z,6.00
2018-05-14T02:29:40.162Z,5.63
2018-05-14T02:32:08.891Z,7.23
2018-05-14T02:34:37.357Z,6.27
2018-05-14T02:37:05.831Z,5.83
2018-05-14T02:39:34.374Z,6.97
2018-05-14T02:42:03.266Z,6.30
2018-05-14T02:44:31.835Z,6.07
2018-05-14T02:47:00.401Z,6.33
2018-05-14T02:49:28.944Z,6.17
2018-05-14T02:51:57.619Z,6.23
2018-05-14T02:54:26.201Z,5.67
2018-05-14T02:56:54.675Z,5.80
2018-05-14T02:59:23.196Z,6.47
2018-05-14T03:01:51.715Z,7.10
2018-05-14T03:04:20.188Z,7.00
2018-05-14T03:06:48.717Z,6.63
2018-05-14T03:09:17.170Z,7.17
2018-05-14T03:11:45.930Z,7.27
2018-05-14T03:14:14.532Z,7.07
2018-05-14T03:16:43.081Z,6.50
2018-05-14T03:19:11.626Z,6.67
2018-05-14T03:21:40.396Z,6.47
2018-05-14T03:24:08.740Z,6.53
2018-05-14T03:26:37.604Z,6.90
2018-05-14T03:29:06.177Z,7.07
2018-05-14T03:31:34.648Z,7.00
2018-05-14T03:34:03.111Z,7.23
2018-05-14T03:36:31.668Z,6.83
2018-05-14T03:39:00.098Z,6.80
2018-05-14T03:41:28.629Z,6.30
2018-05-14T03:43:57.078Z,7.03
2018-05-14T03:46:25.793Z,6.47
2018-05-14T03:48:54.210Z,6.87
2018-05-14T03:51:22.746Z,6.77
2018-05-14T03:53:51.222Z,6.03
2018-05-14T03:56:19.697Z,7.37
2018-05-14T04:05:25.116Z,6.57
2018-05-14T04:07:53.835Z,7.03
2018-05-14T04:10:22.291Z,6.67
2018-05-14T04:12:50.923Z,7.07
2018-05-14T04:15:19.543Z,6.50
2018-05-14T04:17:48.159Z,6.83
2018-05-14T04:20:17.031Z,6.30
2018-05-14T04:22:45.560Z,7.30
2018-05-14T04:25:14.186Z,6.40
2018-05-14T04:27:42.674Z,7.23
2018-05-14T04:30:11.226Z,7.10
2018-05-14T04:32:39.739Z,7.10
2018-05-14T04:35:08.804Z,6.90
2018-05-14T04:37:41.180Z,7.00
2018-05-14T04:40:10.227Z,7.83
2018-05-14T04:42:39.106Z,6.63
2018-05-14T04:45:08.110Z,7.60
2018-05-14T04:47:37.444Z,7.63
2018-05-14T04:50:12.728Z,6.67
2018-05-14T04:52:41.156Z,6.93
2018-05-14T04:55:09.606Z,7.27
2018-05-14T04:57:38.143Z,7.67
2018-05-14T05:00:06.683Z,7.60
2018-05-14T05:02:35.763Z,7.33
2018-05-14T05:05:04.282Z,7.70
2018-05-14T05:07:32.957Z,8.17
2018-05-14T05:10:01.784Z,8.90
2018-05-14T05:12:30.332Z,7.43
2018-05-14T05:14:58.783Z,7.20
2018-05-14T05:17:27.253Z,7.80
2018-05-14T05:19:55.933Z,8.00
2018-05-14T05:22:24.646Z,7.83
2018-05-14T05:24:53.661Z,7.20
2018-05-14T05:27:22.183Z,7.33
2018-05-14T05:29:51.155Z,7.57
2018-05-14T05:32:21.118Z,7.70
2018-05-14T05:34:49.655Z,7.83
2018-05-14T05:37:18.209Z,7.83
2018-05-14T05:39:46.889Z,8.10
2018-05-14T05:42:15.608Z,8.03
2018-05-14T05:44:44.429Z,7.77
2018-05-14T05:47:12.895Z,8.60
2018-05-14T05:49:41.319Z,9.10
2018-05-14T05:52:10.056Z,8.27
2018-05-14T05:54:38.783Z,7.77
2018-05-14T05:57:07.304Z,8.07
2018-05-14T05:59:35.931Z,8.23
2018-05-14T06:02:04.506Z,8.30
2018-05-14T06:04:33.063Z,8.60
2018-05-14T06:07:01.559Z,7.97
2018-05-14T06:09:30.090Z,7.93
2018-05-14T06:11:58.619Z,8.00
2018-05-14T06:14:27.188Z,8.00
2018-05-14T06:16:55.720Z,7.83
2018-05-14T06:19:24.380Z,7.77
2018-05-14T06:21:53.071Z,7.10
2018-05-14T06:24:21.797Z,8.43
2018-05-14T06:26:50.573Z,8.03
2018-05-14T06:29:19.321Z,8.37
2018-05-14T06:31:47.891Z,7.40
2018-05-14T06:34:16.478Z,7.53
2018-05-14T06:36:45.975Z,8.53
2018-05-14T06:39:14.472Z,8.10
2018-05-14T06:41:42.990Z,7.50
2018-05-14T06:44:11.791Z,6.70
2018-05-14T06:46:40.574Z,7.40
2018-05-14T06:49:09.286Z,7.50
2018-05-14T06:51:38.172Z,6.97
2018-05-14T06:54:06.796Z,6.80
2018-05-14T06:56:35.267Z,6.93
2018-05-14T06:59:04.048Z,7.50
2018-05-14T07:01:32.886Z,7.33
2018-05-14T07:04:01.772Z,8.50
2018-05-14T07:06:30.245Z,6.70
2018-05-14T07:08:58.801Z,7.90
2018-05-14T07:11:27.632Z,7.60
2018-05-14T07:13:56.266Z,6.47
2018-05-14T07:16:25.447Z,7.60
2018-05-14T07:18:54.035Z,7.47
2018-05-14T07:21:22.818Z,7.30
2018-05-14T07:23:51.527Z,7.30
2018-05-14T07:26:20.496Z,6.17
2018-05-14T07:28:49.228Z,6.90
2018-05-14T07:31:17.908Z,7.50
2018-05-14T07:33:46.543Z,7.80
2018-05-14T07:36:15.176Z,6.30
2018-05-14T07:38:43.776Z,6.50
2018-05-14T07:41:12.294Z,6.67
2018-05-14T07:43:40.776Z,6.60
2018-05-14T07:46:10.132Z,6.87
2018-05-14T07:48:38.732Z,7.40
2018-05-14T07:51:07.588Z,6.37
2018-05-14T07:53:36.016Z,6.90
2018-05-14T07:56:04.622Z,8.80
2018-05-14T07:58:34.009Z,6.60
2018-05-14T08:01:02.592Z,6.10
2018-05-14T08:03:31.351Z,5.90
2018-05-14T08:05:59.947Z,6.50
2018-05-14T08:08:28.412Z,6.60
2018-05-14T08:10:57.190Z,6.50
2018-05-14T08:13:26.225Z,5.90
2018-05-14T08:15:54.876Z,5.60
2018-05-14T08:18:23.956Z,5.93
2018-05-14T08:20:52.892Z,5.33
2018-05-14T08:23:21.560Z,5.60
2018-05-14T08:25:50.512Z,5.43
2018-05-14T08:28:19.320Z,5.20
2018-05-14T08:30:48.052Z,5.13
2018-05-14T08:33:16.708Z,5.77
2018-05-14T08:35:45.669Z,5.33
2018-05-14T08:38:14.308Z,5.73
2018-05-14T08:40:43.044Z,4.87
2018-05-14T08:43:11.822Z,5.60
2018-05-14T08:45:40.331Z,5.17
2018-05-14T08:48:08.974Z,5.30
2018-05-14T08:50:37.848Z,5.40
2018-05-14T08:53:06.353Z,5.63
2018-05-14T08:55:36.862Z,5.80
2018-05-14T08:58:08.982Z,7.90
2018-05-14T09:00:38.920Z,5.07
2018-05-14T09:03:07.938Z,5.70
2018-05-14T09:05:36.636Z,5.10
2018-05-14T09:08:05.368Z,4.80
2018-05-14T09:10:34.878Z,4.80
2018-05-14T09:13:03.693Z,4.90
2018-05-14T09:15:32.331Z,4.60
2018-05-14T09:18:01.982Z,4.87
2018-05-14T09:20:30.535Z,4.90
2018-05-14T09:22:59.334Z,5.53
2018-05-14T09:25:28.044Z,4.50
2018-05-14T09:27:57.418Z,4.37
2018-05-14T09:30:26.336Z,4.30
2018-05-14T09:32:55.683Z,4.37
2018-05-14T09:35:25.370Z,4.83
2018-05-14T09:37:55.331Z,4.23
2018-05-14T09:40:24.270Z,4.10
2018-05-14T09:42:53.042Z,4.70
2018-05-14T09:45:21.898Z,4.83
2018-05-14T09:47:50.775Z,4.50
2018-05-14T09:50:19.370Z,4.10
2018-05-14T09:52:48.817Z,4.00
2018-05-14T09:55:17.787Z,4.90
2018-05-14T09:57:46.415Z,4.80
2018-05-14T10:00:15.070Z,4.40
2018-05-14T10:02:44.621Z,4.07
2018-05-14T10:05:13.246Z,3.93
2018-05-14T10:07:42.109Z,3.77
2018-05-14T10:10:10.657Z,4.40
2018-05-14T10:12:39.607Z,4.70
2018-05-14T10:15:08.467Z,4.77
2018-05-14T10:17:37.220Z,3.50
2018-05-14T10:20:05.854Z,4.47
2018-05-14T10:22:34.825Z,3.97
2018-05-14T10:25:03.307Z,3.57
2018-05-14T10:27:31.802Z,3.53
2018-05-14T10:30:00.514Z,4.03
2018-05-14T10:32:29.195Z,3.00
2018-05-14T10:34:57.707Z,3.63
2018-05-14T10:37:26.379Z,4.20
2018-05-14T10:39:55.279Z,3.50
2018-05-14T10:42:23.887Z,3.00
2018-05-14T10:44:52.555Z,3.47
2018-05-14T10:47:21.138Z,3.40
2018-05-14T10:49:50.392Z,3.43
2018-05-14T10:52:18.868Z,3.13
2018-05-14T10:54:47.697Z,3.23
2018-05-14T10:57:16.243Z,3.90
2018-05-14T10:59:48.063Z,2.60
2018-05-14T11:02:17.123Z,2.73
2018-05-14T11:04:45.825Z,2.80
2018-05-14T11:07:15.041Z,2.70
2018-05-14T11:09:43.610Z,2.27
2018-05-14T11:12:12.461Z,2.90
2018-05-14T11:14:41.024Z,3.00
2018-05-14T11:17:09.857Z,2.80
2018-05-14T11:19:38.965Z,2.57
2018-05-14T11:22:07.779Z,2.80
2018-05-14T11:24:36.992Z,2.80
2018-05-14T11:27:05.607Z,2.70
2018-05-14T11:29:34.329Z,2.50
2018-05-14T11:32:04.345Z,2.37
2018-05-14T11:34:33.104Z,2.40
2018-05-14T11:37:02.022Z,2.03
2018-05-14T11:39:31.129Z,2.80
2018-05-14T11:42:00.915Z,2.53
2018-05-14T11:44:29.538Z,1.90
2018-05-14T11:46:58.176Z,2.50
2018-05-14T11:49:26.856Z,2.10
2018-05-14T11:51:56.004Z,2.50
2018-05-14T11:54:24.902Z,2.20
2018-05-14T11:56:53.755Z,2.33
2018-05-14T11:59:22.475Z,2.53
2018-05-14T12:01:51.299Z,2.40
2018-05-14T12:04:26.540Z,2.03
2018-05-14T12:06:56.893Z,2.20
2018-05-14T12:09:26.188Z,2.07
2018-05-14T12:11:55.171Z,2.37
2018-05-14T12:14:24.036Z,2.03
2018-05-14T12:19:48.727Z,2.00
2018-05-14T12:22:17.283Z,1.93
2018-05-14T12:24:45.795Z,2.27
2018-05-14T12:27:14.452Z,2.30
2018-05-14T12:29:43.142Z,2.20
2018-05-14T12:32:11.754Z,2.03
2018-05-14T12:34:41.500Z,2.27
2018-05-14T12:37:10.779Z,2.43
2018-05-14T12:39:39.511Z,1.90
2018-05-14T12:42:08.205Z,2.50
2018-05-14T12:44:36.852Z,2.30
2018-05-14T12:47:05.566Z,2.30
2018-05-14T12:49:34.826Z,2.03
2018-05-14T12:52:04.429Z,2.00
2018-05-14T12:54:33.105Z,2.20
2018-05-14T12:57:01.758Z,1.80
2018-05-14T12:59:30.423Z,2.10
2018-05-14T13:01:59.131Z,2.20
2018-05-14T13:04:27.651Z,1.97
2018-05-14T13:06:56.372Z,1.97
2018-05-14T13:09:24.942Z,2.23
2018-05-14T13:11:53.543Z,1.80
2018-05-14T13:14:22.129Z,2.47
2018-05-14T13:16:50.863Z,2.00
2018-05-14T13:19:19.547Z,2.00
2018-05-14T13:21:48.084Z,2.13
2018-05-14T13:24:16.865Z,2.27
2018-05-14T13:26:45.563Z,2.53
2018-05-14T13:29:15.021Z,2.27
2018-05-14T13:31:43.999Z,2.40
2018-05-14T13:34:12.576Z,2.20
2018-05-14T13:36:41.139Z,2.30
2018-05-14T13:39:09.812Z,2.17
2018-05-14T13:41:38.371Z,2.60
2018-05-14T13:44:06.892Z,2.20
2018-05-14T13:46:35.711Z,2.97
2018-05-14T13:49:04.288Z,2.50
2018-05-14T13:51:32.796Z,2.63
2018-05-14T13:54:01.500Z,2.47
2018-05-14T13:56:30.015Z,2.90
2018-05-14T13:58:58.520Z,2.67
2018-05-14T14:01:28.748Z,2.83
2018-05-14T14:03:57.683Z,2.50
2018-05-14T14:06:26.238Z,2.50
2018-05-14T14:08:54.904Z,3.30
2018-05-14T14:11:23.489Z,3.10
2018-05-14T14:16:27.948Z,2.33
2018-05-14T14:18:56.985Z,2.33
2018-05-14T14:21:25.540Z,2.40
2018-05-14T14:23:54.082Z,2.30
2018-05-14T14:26:22.837Z,3.20
2018-05-14T14:28:51.704Z,2.60
2018-05-14T14:31:22.753Z,2.20
2018-05-14T14:33:51.359Z,2.50
2018-05-14T14:36:20.101Z,3.10
2018-05-14T14:38:48.669Z,2.80
2018-05-14T14:41:17.214Z,3.00
2018-05-14T14:43:45.764Z,2.83
2018-05-14T14:46:14.292Z,3.10
2018-05-14T14:48:42.861Z,2.53
2018-05-14T14:51:11.411Z,2.57
2018-05-14T14:53:39.982Z,2.73
2018-05-14T14:56:08.712Z,2.40
2018-05-14T14:58:37.259Z,2.80
2018-05-14T15:01:06.283Z,3.03
2018-05-14T15:03:36.166Z,3.27
2018-05-14T15:06:05.271Z,3.40
2018-05-14T15:08:33.957Z,3.87
2018-05-14T15:11:02.471Z,3.50
2018-05-14T15:13:31.134Z,3.80
2018-05-14T15:15:59.726Z,3.43
2018-05-14T15:18:28.468Z,3.97
2018-05-14T15:20:57.046Z,3.97
2018-05-14T15:23:25.614Z,3.77
2018-05-14T15:25:54.115Z,4.10
2018-05-14T15:28:23.880Z,4.40
2018-05-14T15:30:53.563Z,4.27
2018-05-14T15:33:22.070Z,4.13
2018-05-14T15:35:50.599Z,4.43
2018-05-14T15:38:19.368Z,4.10
2018-05-14T15:40:49.508Z,3.83
2018-05-14T15:43:18.987Z,4.10
2018-05-14T15:45:47.567Z,3.97
2018-05-14T15:48:17.199Z,3.83
2018-05-14T15:50:46.649Z,4.23
2018-05-14T15:53:15.588Z,3.93
2018-05-14T15:55:44.146Z,3.17
2018-05-14T15:58:14.847Z,3.60
2018-05-14T16:00:43.535Z,3.70
2018-05-14T16:03:12.202Z,3.17
2018-05-14T16:05:42.157Z,3.37
2018-05-14T16:08:11.296Z,2.80
2018-05-14T16:10:39.802Z,3.00
2018-05-14T16:13:08.896Z,3.10
2018-05-14T16:15:37.383Z,3.10
2018-05-14T16:18:06.348Z,3.53
2018-05-14T16:20:34.972Z,3.73
2018-05-14T16:23:04.145Z,3.60
2018-05-14T16:25:32.848Z,3.87
2018-05-14T16:28:01.388Z,4.10
2018-05-14T16:30:29.954Z,3.83
2018-05-14T16:32:58.448Z,3.70
2018-05-14T16:35:26.914Z,3.50
2018-05-14T16:37:55.558Z,3.97
2018-05-14T16:40:24.017Z,4.10
2018-05-14T16:42:52.672Z,3.50
2018-05-14T16:45:21.292Z,4.00
2018-05-14T16:47:49.935Z,3.57
2018-05-14T16:50:18.483Z,4.10
2018-05-14T16:52:46.921Z,4.17
2018-05-14T16:55:15.607Z,4.00
2018-05-14T16:57:44.323Z,3.13
2018-05-14T17:00:12.790Z,4.03
2018-05-14T17:02:41.437Z,4.50
2018-05-14T17:05:11.120Z,4.37
2018-05-14T17:07:40.209Z,4.20
2018-05-14T17:10:08.801Z,4.10
2018-05-14T17:12:37.745Z,4.20
2018-05-14T17:15:06.465Z,3.10
2018-05-14T17:17:35.111Z,3.40
2018-05-14T17:20:03.772Z,5.60
2018-05-14T17:22:32.380Z,4.70
2018-05-14T17:25:01.645Z,5.67
2018-05-14T17:27:30.140Z,5.53
2018-05-14T17:29:58.643Z,3.50
2018-05-14T17:32:27.205Z,3.90
2018-05-14T17:34:55.683Z,4.70
2018-05-14T17:37:24.231Z,3.63
2018-05-14T17:39:52.692Z,3.40
2018-05-14T17:42:21.290Z,3.83
2018-05-14T17:44:50.003Z,4.10
2018-05-14T17:47:18.771Z,4.60
2018-05-14T17:49:47.251Z,4.20
2018-05-14T17:52:15.795Z,3.57
2018-05-14T17:54:44.524Z,4.03
2018-05-14T17:57:13.505Z,4.17
2018-05-14T17:59:42.037Z,4.30
2018-05-14T18:02:10.704Z,4.23
2018-05-14T18:04:39.215Z,4.90
2018-05-14T18:07:07.743Z,4.10
2018-05-14T18:09:36.403Z,4.20
2018-05-14T18:12:05.308Z,3.80
2018-05-14T18:14:33.987Z,4.13
2018-05-14T18:17:02.600Z,5.10
2018-05-14T18:19:35.720Z,4.30
2018-05-14T18:22:08.749Z,5.13
2018-05-14T18:24:37.291Z,4.60
2018-05-14T18:27:09.590Z,4.30
2018-05-14T18:29:39.471Z,6.50
2018-05-14T18:32:08.494Z,4.27
2018-05-14T18:34:39.677Z,4.13
2018-05-14T18:37:08.415Z,4.03
2018-05-14T18:39:36.832Z,4.20
2018-05-14T18:42:05.620Z,4.30
2018-05-14T18:44:37.160Z,4.23
2018-05-14T18:47:05.854Z,4.40
2018-05-14T18:49:34.320Z,4.90
2018-05-14T18:52:03.164Z,4.07
2018-05-14T18:54:31.775Z,4.57
2018-05-14T18:57:00.392Z,4.30
2018-05-14T18:59:28.926Z,4.80
2018-05-14T19:01:57.507Z,4.60
2018-05-14T19:04:27.341Z,5.33
2018-05-14T19:06:56.113Z,4.87
2018-05-14T19:09:24.648Z,4.83
2018-05-14T19:11:53.537Z,5.00
2018-05-14T19:14:22.105Z,4.90
2018-05-14T19:16:55.840Z,5.90
2018-05-14T19:19:24.344Z,4.67
2018-05-14T19:21:52.961Z,4.63
2018-05-14T19:24:21.547Z,5.10
2018-05-14T19:26:50.242Z,4.93
2018-05-14T19:29:25.211Z,4.83
2018-05-14T19:31:54.531Z,4.97
2018-05-14T19:34:28.669Z,4.97
2018-05-14T19:36:57.264Z,5.03
2018-05-14T19:39:29.887Z,5.57
2018-05-14T19:41:58.596Z,4.97
2018-05-14T19:44:27.536Z,5.13
2018-05-14T19:46:56.939Z,5.80
2018-05-14T19:49:28.354Z,6.27
2018-05-14T19:52:00.902Z,5.40
2018-05-14T19:54:30.336Z,5.37
2018-05-14T19:56:59.117Z,5.03
2018-05-14T19:59:27.944Z,5.13
2018-05-14T20:01:56.545Z,5.33
2018-05-14T20:04:25.327Z,4.87
2018-05-14T20:06:55.945Z,5.77
2018-05-14T20:09:27.261Z,5.60
2018-05-14T20:11:56.249Z,5.30
2018-05-14T20:14:24.720Z,5.53
2018-05-14T20:16:53.223Z,6.00
2018-05-14T20:19:21.644Z,5.73
2018-05-14T20:21:50.372Z,5.70
2018-05-14T20:24:19.565Z,5.37
2018-05-14T20:26:48.300Z,5.37
2018-05-14T20:29:16.928Z,5.90
2018-05-14T20:31:45.504Z,5.40
2018-05-14T20:34:13.942Z,5.87
2018-05-14T20:36:42.495Z,5.97
2018-05-14T20:39:11.127Z,5.73
2018-05-14T20:41:39.886Z,6.10
2018-05-14T20:44:08.323Z,5.57
2018-05-14T20:46:36.907Z,5.70
2018-05-14T20:49:05.344Z,6.27
2018-05-14T20:51:33.935Z,6.27
2018-05-14T20:54:02.373Z,5.40
2018-05-14T20:56:30.902Z,6.60
2018-05-14T20:58:59.413Z,5.77
2018-05-14T21:01:28.186Z,5.83
2018-05-14T21:03:56.787Z,5.60
2018-05-14T21:06:25.287Z,5.50
2018-05-14T21:08:54.071Z,5.53
2018-05-14T21:11:22.791Z,5.57
2018-05-14T21:13:51.412Z,5.50
2018-05-14T21:16:19.934Z,5.37
2018-05-14T21:18:48.419Z,5.70
2018-05-14T21:21:17.292Z,5.60
2018-05-14T21:23:45.775Z,5.70
2018-05-14T21:26:14.584Z,6.40
2018-05-14T21:28:43.380Z,5.63
2018-05-14T21:31:11.994Z,5.60
2018-05-14T21:33:40.495Z,5.60
2018-05-14T21:36:09.147Z,6.13
2018-05-14T21:38:37.863Z,6.20
2018-05-14T21:41:06.529Z,6.77
2018-05-14T21:43:35.398Z,7.27
2018-05-14T21:46:04.488Z,5.83
2018-05-14T21:48:33.111Z,5.80
2018-05-14T21:51:01.743Z,5.93
2018-05-14T21:53:31.074Z,5.90
2018-05-14T21:55:59.585Z,6.10
2018-05-14T21:58:28.864Z,6.10
2018-05-14T22:00:57.679Z,6.30
2018-05-14T22:03:26.263Z,5.70
2018-05-14T22:05:54.848Z,6.10
2018-05-14T22:08:23.522Z,7.00
2018-05-14T22:10:52.242Z,6.43
2018-05-14T22:13:21.087Z,6.13
2018-05-14T22:15:49.848Z,6.20
2018-05-14T22:18:18.513Z,6.00
2018-05-14T22:20:47.012Z,6.23
2018-05-14T22:23:15.940Z,6.50
2018-05-14T22:25:44.491Z,6.50
2018-05-14T22:28:13.411Z,6.10
2018-05-14T22:30:41.891Z,6.50
2018-05-14T22:33:10.511Z,6.17
2018-05-14T22:35:39.023Z,7.20
2018-05-14T22:38:07.555Z,6.10
2018-05-14T22:40:36.247Z,6.50
2018-05-14T22:43:04.872Z,6.30
2018-05-14T22:45:33.367Z,5.90
2018-05-14T22:48:01.792Z,6.63
2018-05-14T22:50:30.279Z,6.50
2018-05-14T22:52:58.774Z,7.10
2018-05-14T22:55:27.574Z,7.67
2018-05-14T22:57:56.114Z,6.40
2018-05-14T23:00:25.109Z,7.13
2018-05-14T23:02:53.526Z,7.57
2018-05-14T23:05:22.240Z,7.03
2018-05-14T23:07:50.721Z,7.30
2018-05-14T23:10:19.215Z,7.17
2018-05-14T23:12:47.878Z,7.83
2018-05-14T23:15:16.441Z,7.27
2018-05-14T23:17:44.862Z,7.13
2018-05-14T23:20:13.534Z,7.83
2018-05-14T23:22:42.576Z,6.83
2018-05-14T23:25:11.066Z,8.10
2018-05-14T23:27:39.525Z,7.57
2018-05-14T23:30:08.289Z,7.43
2018-05-14T23:32:36.957Z,7.83
2018-05-14T23:35:05.642Z,8.07
2018-05-14T23:37:34.075Z,7.37
2018-05-14T23:40:02.473Z,9.00
2018-05-14T23:42:30.942Z,8.23
2018-05-14T23:44:59.551Z,8.13
2018-05-14T23:47:28.068Z,8.53
2018-05-14T23:49:56.707Z,8.60
2018-05-14T23:52:25.172Z,8.30
2018-05-14T23:54:53.882Z,7.97
2018-05-14T23:57:22.373Z,8.40
2018-05-14T23:59:50.800Z,8.77
